Time;durP1;ratioP1;P1;durP2;ratioP2;P2;SDS_P1;SDS_P2;PMS_P1;PMS_P2;Temp;Humidity;BMP_temperature;BMP_pressure;BME280_temperature;BME280_humidity;BME280_pressure;Samples;Min_cycle;Max_cycle;Signal;HPM_P1;HPM_P2
2021/03/05 00:01:05;;;;;;;22.17;15.93;;;3.90;99.90;;;;;;5072264;28;20207;-80
2021/03/05 00:03:32;;;;;;;20.63;16.27;;;3.90;99.90;;;;;;5057218;28;20664;-80
2021/03/05 00:05:58;;;;;;;21.25;15.82;;;3.90;99.90;;;;;;5055999;28;20231;-80
2021/03/05 00:08:25;;;;;;;22.30;15.20;;;4.20;99.90;;;;;;5046812;28;20240;-80
2021/03/05 00:10:53;;;;;;;17.45;13.18;;;4.00;99.90;;;;;;5056732;28;20721;-80
2021/03/05 00:13:21;;;;;;;16.38;14.38;;;3.90;99.90;;;;;;5059352;28;20205;-80
2021/03/05 00:15:48;;;;;;;19.33;15.75;;;3.90;99.90;;;;;;5063424;28;20198;-80
2021/03/05 00:18:15;;;;;;;18.42;13.57;;;3.90;99.90;;;;;;5065690;28;20662;-80
2021/03/05 00:20:45;;;;;;;21.15;15.15;;;4.10;99.90;;;;;;5062518;28;20218;-80
2021/03/05 00:23:12;;;;;;;15.83;14.13;;;3.80;99.90;;;;;;5067486;28;20199;-81
2021/03/05 00:25:39;;;;;;;17.73;13.45;;;3.90;99.90;;;;;;5060895;28;20249;-81
2021/03/05 00:28:07;;;;;;;20.13;16.47;;;3.90;99.90;;;;;;5063526;28;20199;-81
2021/03/05 00:30:34;;;;;;;15.32;13.25;;;3.90;99.90;;;;;;5065629;28;20582;-80
2021/03/05 00:33:01;;;;;;;18.67;12.93;;;3.90;99.90;;;;;;5065256;28;20191;-80
2021/03/05 00:35:28;;;;;;;18.53;12.63;;;3.90;99.90;;;;;;5065990;28;20210;-80
2021/03/05 00:37:55;;;;;;;16.43;13.00;;;3.80;99.90;;;;;;5047646;28;20297;-80
2021/03/05 00:40:23;;;;;;;13.18;11.40;;;3.80;99.90;;;;;;5063349;28;20250;-80
2021/03/05 00:42:51;;;;;;;17.13;12.13;;;3.80;99.90;;;;;;5065411;28;21928;-79
2021/03/05 00:45:21;;;;;;;18.75;12.52;;;3.80;99.90;;;;;;5042908;28;20194;-80
2021/03/05 00:47:50;;;;;;;16.30;11.80;;;3.80;99.90;;;;;;5045358;28;20605;-80
2021/03/05 00:50:19;;;;;;;14.73;11.15;;;3.80;99.90;;;;;;5061320;28;20215;-80
2021/03/05 00:52:48;;;;;;;11.48;8.73;;;3.80;99.90;;;;;;5062774;28;20226;-80
2021/03/05 00:55:15;;;;;;;12.17;9.03;;;3.70;99.90;;;;;;5062653;28;20191;-81
2021/03/05 00:57:44;;;;;;;12.88;10.20;;;3.70;99.90;;;;;;5075971;28;20229;-81
2021/03/05 01:00:14;;;;;;;16.45;10.75;;;3.60;99.90;;;;;;5056546;28;20226;-81
2021/03/05 01:02:43;;;;;;;13.95;9.50;;;3.60;99.90;;;;;;5077556;28;20202;-80
2021/03/05 01:05:10;;;;;;;18.13;10.82;;;3.60;99.90;;;;;;5043150;28;20195;-79
2021/03/05 01:07:38;;;;;;;11.57;9.05;;;3.60;99.90;;;;;;5053076;28;20194;-82
2021/03/05 01:10:07;;;;;;;12.18;9.20;;;3.50;99.90;;;;;;5072983;28;20316;-80
2021/03/05 01:12:35;;;;;;;15.73;10.00;;;3.50;99.90;;;;;;5060612;28;20195;-78
2021/03/05 01:15:06;;;;;;;10.48;8.02;;;3.40;99.90;;;;;;5060694;28;20630;-80
2021/03/05 01:17:32;;;;;;;12.57;8.23;;;3.50;99.90;;;;;;5066704;28;20195;-80
2021/03/05 01:20:00;;;;;;;12.03;7.77;;;3.60;99.90;;;;;;5056443;28;20257;-81
2021/03/05 01:22:27;;;;;;;16.20;8.02;;;3.60;99.90;;;;;;5060494;28;20905;-80
2021/03/05 01:24:54;;;;;;;8.75;6.85;;;3.30;99.90;;;;;;5062325;28;20190;-80
2021/03/05 01:27:21;;;;;;;10.27;7.25;;;3.30;99.90;;;;;;5049197;28;20197;-80
2021/03/05 01:29:48;;;;;;;14.00;7.93;;;3.30;99.90;;;;;;5045176;28;20210;-80
2021/03/05 01:32:14;;;;;;;16.27;6.95;;;3.30;99.90;;;;;;5061987;28;20291;-80
2021/03/05 01:34:41;;;;;;;8.93;6.40;;;3.50;99.90;;;;;;5061980;28;20190;-80
2021/03/05 01:37:08;;;;;;;7.03;5.57;;;3.20;99.90;;;;;;5065393;28;20195;-79
2021/03/05 01:39:35;;;;;;;7.60;6.07;;;3.20;99.90;;;;;;5043758;28;20245;-80
2021/03/05 01:42:02;;;;;;;8.75;5.22;;;3.10;99.90;;;;;;5064928;28;20230;-79
2021/03/05 01:44:29;;;;;;;5.90;4.43;;;3.10;99.90;;;;;;5047403;28;20199;-79
2021/03/05 01:46:55;;;;;;;8.05;5.45;;;3.10;99.90;;;;;;5069975;28;20187;-79
2021/03/05 01:49:22;;;;;;;7.77;5.17;;;3.10;99.90;;;;;;5051564;28;20260;-79
2021/03/05 01:51:49;;;;;;;8.60;5.15;;;3.00;99.90;;;;;;5049032;28;20233;-79
2021/03/05 01:54:17;;;;;;;10.77;5.33;;;3.00;99.90;;;;;;5050170;28;20223;-80
2021/03/05 01:56:48;;;;;;;10.90;4.93;;;2.90;99.90;;;;;;5068277;28;20203;-80
2021/03/05 01:59:19;;;;;;;6.63;4.03;;;2.80;99.90;;;;;;5065440;28;20604;-80
2021/03/05 02:01:46;;;;;;;5.18;4.22;;;2.80;99.90;;;;;;5072576;28;20261;-80
2021/03/05 02:04:14;;;;;;;6.65;4.50;;;2.70;99.90;;;;;;5068250;28;20192;-80
2021/03/05 02:06:42;;;;;;;6.57;3.90;;;2.60;99.90;;;;;;5054073;28;20210;-80
2021/03/05 02:09:08;;;;;;;4.83;4.30;;;2.60;99.90;;;;;;5056146;28;20249;-80
2021/03/05 02:11:37;;;;;;;5.30;4.18;;;2.60;99.90;;;;;;5056080;28;20613;-80
2021/03/05 02:14:07;;;;;;;7.55;4.10;;;2.60;99.90;;;;;;5056584;28;20206;-80
2021/03/05 02:16:47;;;;;;;5.63;3.55;;;2.60;99.90;;;;;;5064716;28;20198;-79
2021/03/05 02:19:40;;;;;;;3.97;3.17;;;2.80;99.90;;;;;;5073546;28;20210;-79
2021/03/05 02:22:28;;;;;;;9.38;4.47;;;2.50;99.90;;;;;;5068012;28;20192;-80
2021/03/05 02:25:35;;;;;;;3.80;3.43;;;2.50;99.90;;;;;;5040638;28;20357;-80
2021/03/05 02:28:31;;;;;;;5.87;3.30;;;2.50;99.90;;;;;;5061052;28;20199;-80
2021/03/05 02:31:14;;;;;;;4.90;3.20;;;2.40;99.90;;;;;;5056466;28;20223;-80
2021/03/05 02:33:46;;;;;;;6.17;2.80;;;2.50;99.90;;;;;;5073334;28;20244;-80
2021/03/05 02:36:18;;;;;;;7.57;3.50;;;2.30;99.90;;;;;;5077008;28;20225;-79
2021/03/05 02:38:53;;;;;;;5.50;2.70;;;2.30;99.90;;;;;;5057525;28;20212;-80
2021/03/05 02:41:22;;;;;;;5.78;4.20;;;2.40;99.90;;;;;;5069235;28;20275;-80
2021/03/05 02:43:49;;;;;;;5.80;3.00;;;2.40;99.90;;;;;;5065871;28;20320;-79
2021/03/05 02:46:18;;;;;;;4.23;2.30;;;2.40;99.90;;;;;;5065744;28;20195;-81
2021/03/05 02:48:48;;;;;;;3.03;2.60;;;2.30;99.90;;;;;;5066295;28;20187;-80
2021/03/05 02:51:17;;;;;;;5.47;2.55;;;2.30;99.90;;;;;;5074114;28;20297;-80
2021/03/05 02:53:47;;;;;;;3.47;2.90;;;2.30;99.90;;;;;;5056498;28;20250;-79
2021/03/05 02:56:16;;;;;;;5.23;2.63;;;2.30;99.90;;;;;;5054930;28;20219;-80
2021/03/05 02:58:46;;;;;;;6.53;2.63;;;2.30;99.90;;;;;;5070204;28;20708;-81
2021/03/05 03:01:15;;;;;;;3.65;2.55;;;2.30;99.90;;;;;;5069127;28;20211;-80
2021/03/05 03:03:44;;;;;;;2.50;2.10;;;2.30;99.90;;;;;;5074384;28;20289;-80
2021/03/05 03:06:12;;;;;;;4.53;2.90;;;2.20;99.90;;;;;;5064253;28;20218;-80
2021/03/05 03:08:39;;;;;;;5.10;2.90;;;2.20;99.90;;;;;;5038127;28;20200;-80
2021/03/05 03:11:07;;;;;;;6.30;2.53;;;2.10;99.90;;;;;;5067135;28;20253;-80
2021/03/05 03:13:35;;;;;;;5.17;2.60;;;2.00;99.90;;;;;;5063865;28;20218;-79
2021/03/05 03:16:05;;;;;;;6.63;3.13;;;1.90;99.90;;;;;;5046854;28;20231;-79
2021/03/05 03:18:35;;;;;;;7.43;2.73;;;1.90;99.90;;;;;;5038121;28;20199;-79
2021/03/05 03:21:04;;;;;;;6.03;2.45;;;1.80;99.90;;;;;;5045437;28;20214;-79
2021/03/05 03:23:34;;;;;;;5.72;3.40;;;1.70;99.90;;;;;;5060300;28;20192;-79
2021/03/05 03:26:01;;;;;;;11.60;3.17;;;1.70;99.90;;;;;;5076636;28;20288;-79
2021/03/05 03:28:28;;;;;;;8.43;3.08;;;1.70;99.90;;;;;;5082523;28;20258;-79
2021/03/05 03:30:55;;;;;;;4.22;2.95;;;1.80;99.90;;;;;;5089021;28;20242;-79
2021/03/05 03:33:22;;;;;;;3.40;2.73;;;1.70;99.90;;;;;;5074051;28;20204;-80
2021/03/05 03:35:50;;;;;;;3.45;2.63;;;1.70;99.90;;;;;;5065980;28;20578;-79
2021/03/05 03:38:20;;;;;;;4.83;2.90;;;1.70;99.90;;;;;;5066666;28;20198;-79
2021/03/05 03:40:47;;;;;;;6.10;3.00;;;1.80;99.90;;;;;;5089560;28;20211;-82
2021/03/05 03:43:13;;;;;;;8.37;3.47;;;1.80;99.90;;;;;;5055213;28;20203;-79
2021/03/05 03:45:42;;;;;;;9.00;4.10;;;1.80;99.90;;;;;;5070575;28;20237;-79
2021/03/05 03:48:11;;;;;;;5.40;2.45;;;1.80;99.90;;;;;;5067357;28;20199;-79
2021/03/05 03:50:43;;;;;;;3.80;2.70;;;1.70;99.90;;;;;;5071864;28;20203;-79
2021/03/05 03:53:13;;;;;;;5.60;3.07;;;1.70;99.90;;;;;;5068148;28;20199;-79
2021/03/05 03:55:41;;;;;;;4.47;2.57;;;1.70;99.90;;;;;;5077658;28;20255;-79
2021/03/05 03:58:08;;;;;;;9.73;3.80;;;1.70;99.90;;;;;;5070982;28;20192;-80
2021/03/05 04:00:37;;;;;;;4.43;2.53;;;1.70;99.90;;;;;;5053703;28;20243;-79
2021/03/05 04:03:25;;;;;;;5.40;2.87;;;1.60;99.90;;;;;;5067988;28;20191;-79
2021/03/05 04:05:53;;;;;;;3.50;2.33;;;1.60;99.90;;;;;;5060864;28;20195;-79
2021/03/05 04:08:22;;;;;;;4.03;2.67;;;1.60;99.90;;;;;;5053646;28;20194;-79
2021/03/05 04:10:51;;;;;;;6.17;3.00;;;1.50;99.90;;;;;;5064774;28;20230;-79
2021/03/05 04:13:18;;;;;;;5.93;2.50;;;1.40;99.90;;;;;;5055858;28;20210;-80
2021/03/05 04:15:45;;;;;;;4.77;2.37;;;1.40;99.90;;;;;;5054215;28;20670;-79
2021/03/05 04:18:14;;;;;;;6.67;3.27;;;1.30;99.90;;;;;;5063518;28;20201;-81
2021/03/05 04:20:43;;;;;;;4.40;2.43;;;1.30;99.90;;;;;;5071802;28;20287;-79
2021/03/05 04:23:10;;;;;;;8.93;3.33;;;1.30;99.90;;;;;;5071182;28;20230;-79
2021/03/05 04:25:37;;;;;;;6.27;2.83;;;1.20;99.90;;;;;;5059090;28;20222;-79
2021/03/05 04:28:06;;;;;;;6.33;2.67;;;1.20;99.90;;;;;;5067305;28;20665;-80
2021/03/05 04:30:33;;;;;;;3.50;2.30;;;1.20;99.90;;;;;;5072476;28;20206;-80
2021/03/05 04:32:59;;;;;;;5.27;2.30;;;1.10;99.90;;;;;;5073280;28;20623;-79
2021/03/05 04:35:26;;;;;;;5.00;2.63;;;1.00;99.90;;;;;;5043608;28;20223;-79
2021/03/05 04:37:53;;;;;;;5.60;3.43;;;0.90;99.90;;;;;;5046160;28;20192;-80
2021/03/05 04:40:20;;;;;;;5.67;2.70;;;0.90;99.90;;;;;;5054337;28;20215;-79
2021/03/05 04:42:46;;;;;;;3.97;2.67;;;0.90;99.90;;;;;;5057652;28;20194;-79
2021/03/05 04:45:15;;;;;;;8.30;2.50;;;0.90;99.90;;;;;;5060029;28;20217;-79
2021/03/05 04:47:41;;;;;;;7.97;2.90;;;0.80;99.90;;;;;;5074944;28;20195;-79
2021/03/05 04:50:09;;;;;;;5.93;3.03;;;0.80;99.90;;;;;;5061789;28;20219;-79
2021/03/05 04:52:36;;;;;;;4.73;2.53;;;0.80;99.90;;;;;;5030928;28;20759;-79
2021/03/05 04:55:04;;;;;;;4.70;2.53;;;0.80;99.90;;;;;;5068796;28;20198;-79
2021/03/05 04:57:30;;;;;;;6.90;2.70;;;0.70;99.90;;;;;;5056005;28;20214;-80
2021/03/05 04:59:57;;;;;;;4.77;3.20;;;0.70;99.90;;;;;;5059796;28;20245;-79
2021/03/05 05:02:25;;;;;;;5.93;2.93;;;0.70;99.90;;;;;;5060281;28;20690;-80
2021/03/05 05:04:57;;;;;;;3.97;2.43;;;0.60;99.90;;;;;;5069024;28;20202;-79
2021/03/05 05:07:24;;;;;;;5.87;3.10;;;0.70;99.90;;;;;;5054376;28;20281;-80
2021/03/05 05:09:51;;;;;;;5.27;2.47;;;0.60;99.90;;;;;;5054744;28;20254;-79
2021/03/05 05:12:19;;;;;;;5.50;2.80;;;0.60;99.90;;;;;;5037636;28;20191;-79
2021/03/05 05:14:45;;;;;;;7.60;2.77;;;0.60;99.90;;;;;;5053926;28;20199;-79
2021/03/05 05:17:12;;;;;;;5.40;2.37;;;0.50;99.90;;;;;;5055412;28;20203;-79
2021/03/05 05:19:39;;;;;;;4.10;3.07;;;0.50;99.90;;;;;;5076289;28;20305;-79
2021/03/05 05:22:06;;;;;;;7.80;3.73;;;0.50;99.90;;;;;;5077588;28;20285;-79
2021/03/05 05:24:33;;;;;;;6.17;2.60;;;0.40;99.90;;;;;;5066621;28;20187;-79
2021/03/05 05:27:01;;;;;;;5.47;2.93;;;0.40;99.90;;;;;;5068766;28;20207;-79
2021/03/05 05:29:27;;;;;;;5.65;3.13;;;0.40;99.90;;;;;;5046218;28;20214;-79
2021/03/05 05:31:54;;;;;;;3.33;2.30;;;0.40;99.90;;;;;;5073594;28;20190;-79
2021/03/05 05:34:21;;;;;;;6.00;2.53;;;0.40;99.90;;;;;;5054640;28;20192;-79
2021/03/05 05:36:49;;;;;;;4.10;2.17;;;0.50;99.90;;;;;;5062617;28;20278;-79
2021/03/05 05:39:16;;;;;;;7.57;4.30;;;0.40;99.90;;;;;;5053843;28;20223;-79
2021/03/05 05:41:42;;;;;;;8.50;4.13;;;0.40;99.90;;;;;;5072125;28;20248;-79
2021/03/05 05:44:09;;;;;;;10.57;3.60;;;0.30;99.90;;;;;;5065070;28;20241;-79
2021/03/05 05:46:38;;;;;;;3.23;2.77;;;0.40;99.90;;;;;;5055000;28;20639;-79
2021/03/05 05:49:05;;;;;;;4.87;3.60;;;0.30;99.90;;;;;;5064888;28;20203;-79
2021/03/05 05:51:35;;;;;;;3.77;3.37;;;0.20;99.90;;;;;;5034083;28;20196;-79
2021/03/05 05:54:08;;;;;;;3.63;2.57;;;0.10;99.90;;;;;;5058298;28;20745;-79
2021/03/05 05:56:39;;;;;;;5.28;2.70;;;0.10;99.90;;;;;;5073051;28;20198;-79
2021/03/05 05:59:07;;;;;;;9.57;4.28;;;0.00;99.90;;;;;;5071942;28;20774;-79
2021/03/05 06:01:34;;;;;;;6.00;3.07;;;0.10;99.90;;;;;;5048429;28;20204;-79
2021/03/05 06:04:02;;;;;;;7.20;3.00;;;0.00;99.90;;;;;;5061673;28;20195;-80
2021/03/05 06:06:29;;;;;;;4.37;3.17;;;0.00;99.90;;;;;;5049674;28;20237;-79
2021/03/05 06:08:57;;;;;;;6.00;3.20;;;0.10;99.90;;;;;;5054776;28;20243;-79
2021/03/05 06:11:31;;;;;;;8.40;3.33;;;0.30;99.90;;;;;;5052524;28;20215;-79
2021/03/05 06:14:01;;;;;;;4.60;3.87;;;0.00;99.90;;;;;;5056717;28;20221;-80
2021/03/05 06:16:28;;;;;;;5.47;3.40;;;0.00;99.90;;;;;;5054526;28;20195;-79
2021/03/05 06:18:54;;;;;;;7.28;3.92;;;0.00;99.90;;;;;;5072679;28;20662;-79
2021/03/05 06:21:36;;;;;;;11.43;4.50;;;0.10;99.90;;;;;;5060034;28;20274;-79
2021/03/05 06:24:04;;;;;;;6.90;3.40;;;0.00;99.90;;;;;;5065576;28;20206;-79
2021/03/05 06:26:47;;;;;;;7.67;3.73;;;0.10;99.90;;;;;;5073823;28;20190;-79
2021/03/05 06:29:15;;;;;;;6.23;3.97;;;0.00;99.90;;;;;;5047447;28;20192;-80
2021/03/05 06:31:42;;;;;;;7.93;4.40;;;0.00;99.90;;;;;;5064572;28;20191;-79
2021/03/05 06:34:08;;;;;;;4.90;3.57;;;0.00;99.90;;;;;;5066927;28;20248;-79
2021/03/05 06:36:36;;;;;;;6.45;3.97;;;0.10;99.90;;;;;;5066791;28;20191;-79
2021/03/05 06:39:04;;;;;;;8.67;4.10;;;0.10;99.90;;;;;;5058267;28;20215;-80
2021/03/05 06:41:35;;;;;;;8.83;3.77;;;0.20;99.90;;;;;;5073441;28;20193;-80
2021/03/05 06:44:04;;;;;;;6.90;3.90;;;0.20;99.90;;;;;;5058930;28;20261;-80
2021/03/05 06:46:33;;;;;;;8.30;4.73;;;0.30;99.90;;;;;;5060744;28;20218;-79
2021/03/05 06:49:02;;;;;;;8.57;4.43;;;0.60;99.90;;;;;;5059472;28;20210;-80
2021/03/05 06:51:29;;;;;;;9.07;4.30;;;0.40;99.90;;;;;;5058332;28;20195;-80
2021/03/05 06:54:09;;;;;;;8.15;4.47;;;0.40;99.90;;;;;;5063627;28;20206;-81
2021/03/05 06:56:39;;;;;;;4.80;4.13;;;0.40;99.90;;;;;;5078587;28;20258;-81
2021/03/05 06:59:07;;;;;;;7.43;4.22;;;0.40;99.90;;;;;;5078067;28;20227;-81
2021/03/05 07:02:02;;;;;;;10.00;4.60;;;0.40;99.90;;;;;;5061874;28;20271;-82
2021/03/05 07:04:30;;;;;;;7.80;4.47;;;0.30;99.90;;;;;;5076596;28;20214;-80
2021/03/05 07:07:01;;;;;;;8.57;4.70;;;0.30;99.90;;;;;;5065662;28;20187;-80
2021/03/05 07:09:29;;;;;;;6.60;4.23;;;0.30;99.90;;;;;;5073306;28;20231;-80
2021/03/05 07:11:57;;;;;;;14.88;4.25;;;0.30;99.90;;;;;;5069040;28;20742;-80
2021/03/05 07:14:30;;;;;;;8.55;5.72;;;0.30;99.90;;;;;;5078990;28;20205;-80
2021/03/05 07:16:58;;;;;;;12.07;5.07;;;0.40;99.90;;;;;;5060386;28;20206;-80
2021/03/05 07:19:27;;;;;;;10.03;4.80;;;0.50;99.90;;;;;;5068700;28;20226;-80
2021/03/05 07:21:55;;;;;;;12.48;5.53;;;0.60;99.90;;;;;;5080423;28;20247;-79
2021/03/05 07:24:23;;;;;;;7.73;5.13;;;0.70;99.90;;;;;;5065735;28;20233;-79
2021/03/05 07:26:56;;;;;;;5.95;5.00;;;0.70;99.90;;;;;;5059634;28;20204;-81
2021/03/05 07:29:26;;;;;;;9.13;4.87;;;0.70;99.90;;;;;;5056880;28;20211;-80
2021/03/05 07:32:08;;;;;;;9.10;5.63;;;0.80;99.90;;;;;;5061858;28;20659;-80
2021/03/05 07:34:55;;;;;;;8.37;5.10;;;0.90;99.90;;;;;;5073231;28;20199;-79
2021/03/05 07:37:29;;;;;;;9.55;5.15;;;1.00;99.90;;;;;;5063896;28;20654;-80
2021/03/05 07:40:00;;;;;;;5.75;5.18;;;0.90;99.90;;;;;;5062399;28;20222;-79
2021/03/05 07:42:28;;;;;;;6.15;5.35;;;1.00;99.90;;;;;;5057481;28;20191;-79
2021/03/05 07:44:58;;;;;;;10.33;6.53;;;1.10;99.90;;;;;;5059469;28;20206;-79
2021/03/05 07:47:26;;;;;;;6.90;5.50;;;1.10;99.90;;;;;;5078008;28;20205;-79
2021/03/05 07:49:57;;;;;;;9.33;5.20;;;1.00;99.90;;;;;;5066686;28;20215;-79
2021/03/05 07:52:24;;;;;;;9.63;4.28;;;1.10;99.90;;;;;;5065232;28;20613;-79
2021/03/05 07:54:52;;;;;;;7.87;4.30;;;1.30;99.90;;;;;;5069041;28;20225;-82
2021/03/05 07:57:47;;;;;;;7.07;5.50;;;1.20;99.90;;;;;;5074219;28;20253;-83
2021/03/05 08:00:37;;;;;;;10.18;7.15;;;1.30;99.90;;;;;;5074944;28;20246;-83
2021/03/05 08:03:04;;;;;;;8.97;5.00;;;1.40;99.90;;;;;;5065366;28;20234;-83
2021/03/05 08:05:42;;;;;;;5.73;4.67;;;1.40;99.90;;;;;;5064576;28;20211;-83
2021/03/05 08:08:24;;;;;;;7.13;4.10;;;1.50;99.90;;;;;;5063065;28;20214;-82
2021/03/05 08:10:53;;;;;;;5.00;4.22;;;1.70;99.90;;;;;;5055410;28;20286;-83
2021/03/05 08:13:50;;;;;;;6.07;4.57;;;1.80;99.90;;;;;;5061443;28;20199;-84
2021/03/05 08:16:38;;;;;;;9.52;4.47;;;1.90;99.90;;;;;;5063141;28;20206;-83
2021/03/05 08:19:46;;;;;;;10.07;4.40;;;1.80;99.90;;;;;;5061290;28;20578;-83
2021/03/05 08:22:15;;;;;;;8.77;4.63;;;2.00;99.90;;;;;;5063376;28;20219;-84
2021/03/05 08:24:42;;;;;;;5.83;4.50;;;2.00;99.90;;;;;;5061433;28;20744;-84
2021/03/05 08:27:28;;;;;;;15.37;5.23;;;2.20;99.90;;;;;;5043405;28;20199;-84
2021/03/05 08:30:03;;;;;;;6.10;4.50;;;2.70;99.90;;;;;;5041989;28;20222;-84
2021/03/05 08:33:02;;;;;;;8.73;3.90;;;2.60;99.90;;;;;;5058935;28;20195;-82
2021/03/05 08:35:49;;;;;;;5.68;3.53;;;2.50;99.90;;;;;;5037712;28;20741;-81
2021/03/05 08:38:37;;;;;;;8.43;4.17;;;2.90;99.90;;;;;;5061247;28;20200;-81
2021/03/05 08:41:05;;;;;;;9.33;5.43;;;2.60;99.90;;;;;;5059199;28;20314;-82
2021/03/05 08:43:34;;;;;;;10.13;3.90;;;2.50;99.90;;;;;;5042870;28;20218;-82
2021/03/05 08:46:05;;;;;;;7.53;4.60;;;2.60;99.90;;;;;;5061832;28;20267;-82
2021/03/05 08:48:45;;;;;;;8.43;3.95;;;2.80;99.90;;;;;;5059675;28;20202;-82
2021/03/05 08:51:14;;;;;;;7.13;4.20;;;2.70;99.90;;;;;;5059671;28;20210;-84
2021/03/05 08:53:44;;;;;;;6.57;4.50;;;3.10;99.90;;;;;;5058071;28;20199;-83
2021/03/05 08:56:16;;;;;;;13.18;5.47;;;2.90;99.90;;;;;;5058765;28;20203;-82
2021/03/05 08:58:43;;;;;;;7.80;3.70;;;3.00;99.90;;;;;;5059038;28;20223;-82
2021/03/05 09:01:32;;;;;;;7.38;3.90;;;3.00;99.90;;;;;;5059050;28;20226;-83
2021/03/05 09:04:13;;;;;;;8.07;4.30;;;2.90;99.90;;;;;;5053080;28;20206;-83
2021/03/05 09:06:48;;;;;;;12.67;4.30;;;2.50;99.90;;;;;;5058831;28;20262;-83
2021/03/05 09:12:13;;;;;;;5.17;4.27;;;2.40;99.90;;;;;;5053057;28;20207;-40
2021/03/05 09:14:40;;;;;;;8.10;4.85;;;2.50;99.90;;;;;;5031813;28;20195;-40
2021/03/05 09:17:08;;;;;;;7.07;4.43;;;2.60;99.90;;;;;;5040209;28;20224;-38
2021/03/05 09:19:37;;;;;;;9.93;4.80;;;2.70;99.90;;;;;;5031130;28;20212;-39
2021/03/05 09:22:06;;;;;;;5.78;4.18;;;2.70;99.90;;;;;;5042416;28;20221;-40
2021/03/05 09:24:56;;;;;;;6.07;4.40;;;2.90;99.90;;;;;;5072217;22;20303;-41
2021/03/05 09:27:26;;;;;;;6.25;3.47;;;3.00;99.90;;;;;;5069528;28;20197;-43
2021/03/05 09:29:53;;;;;;;8.30;4.55;;;3.20;99.90;;;;;;5070281;28;20194;-41
2021/03/05 09:32:21;;;;;;;3.90;3.55;;;3.50;99.90;;;;;;5070435;28;20209;-41
2021/03/05 09:34:59;;;;;;;4.15;3.75;;;3.60;99.90;;;;;;5063248;28;20725;-42
2021/03/05 09:37:29;;;;;;;7.22;3.65;;;3.70;99.90;;;;;;5061216;28;20283;-41
2021/03/05 09:39:58;;;;;;;11.15;4.80;;;3.90;99.90;;;;;;5061353;28;20233;-42
2021/03/05 09:42:45;;;;;;;10.48;4.60;;;3.90;99.90;;;;;;5058407;28;20202;-41
2021/03/05 09:45:14;;;;;;;6.43;4.70;;;3.80;99.90;;;;;;5052034;28;20223;-40
2021/03/05 09:47:48;;;;;;;6.37;3.93;;;4.00;99.90;;;;;;5056023;28;20252;-43
2021/03/05 09:50:23;;;;;;;4.50;3.80;;;4.20;99.90;;;;;;5066368;28;20734;-43
2021/03/05 09:52:50;;;;;;;6.28;3.90;;;4.40;99.90;;;;;;5066021;28;20600;-41
2021/03/05 09:55:25;;;;;;;6.82;4.32;;;4.50;99.90;;;;;;5049863;28;20385;-42
2021/03/05 09:57:52;;;;;;;4.50;3.70;;;4.60;99.90;;;;;;5057307;28;20270;-41
2021/03/05 10:00:29;;;;;;;8.13;3.67;;;4.60;99.90;;;;;;5060526;28;20221;-43
2021/03/05 10:03:07;;;;;;;5.78;3.63;;;4.70;99.90;;;;;;5062719;28;20251;-41
2021/03/05 10:05:36;;;;;;;4.00;3.35;;;4.80;99.90;;;;;;5053528;28;20199;-43
2021/03/05 10:08:14;;;;;;;10.20;4.25;;;4.90;99.90;;;;;;5063380;28;20293;-41
2021/03/05 10:11:02;;;;;;;5.40;3.43;;;5.10;99.90;;;;;;5062933;28;20191;-42
2021/03/05 10:13:47;;;;;;;7.07;3.90;;;5.30;99.90;;;;;;5057842;28;20218;-42
2021/03/05 10:16:25;;;;;;;9.57;4.20;;;5.40;99.90;;;;;;5060529;28;20465;-41
2021/03/05 10:18:54;;;;;;;7.22;4.13;;;5.60;99.90;;;;;;5059294;28;20195;-42
2021/03/05 10:21:22;;;;;;;8.68;3.10;;;5.60;99.90;;;;;;5066343;28;20238;-41
2021/03/05 10:23:49;;;;;;;8.20;4.47;;;5.70;99.90;;;;;;5058406;28;20226;-42
2021/03/05 10:26:19;;;;;;;7.50;3.65;;;5.80;99.90;;;;;;5069887;28;20221;-41
2021/03/05 10:28:47;;;;;;;5.40;2.90;;;5.80;99.90;;;;;;5062279;28;20222;-42
2021/03/05 10:31:14;;;;;;;6.80;3.30;;;5.80;99.90;;;;;;5060681;28;20207;-42
2021/03/05 10:33:43;;;;;;;10.50;4.10;;;6.20;99.90;;;;;;5072380;28;20215;-41
2021/03/05 10:36:11;;;;;;;5.53;3.63;;;7.10;99.90;;;;;;5053213;28;20203;-41
2021/03/05 10:38:39;;;;;;;3.40;2.63;;;8.10;99.90;;;;;;5063340;28;20190;-41
2021/03/05 10:41:07;;;;;;;4.97;3.43;;;8.00;99.90;;;;;;5052397;28;20696;-41
2021/03/05 10:43:35;;;;;;;4.25;2.92;;;9.50;99.90;;;;;;5065605;28;20223;-42
2021/03/05 10:46:03;;;;;;;8.23;2.70;;;13.60;99.90;;;;;;5061852;28;20207;-42
2021/03/05 10:48:30;;;;;;;4.60;2.63;;;15.10;99.90;;;;;;5063130;28;20684;-40
2021/03/05 10:50:57;;;;;;;5.38;2.83;;;15.50;99.90;;;;;;5066158;28;20188;-43
2021/03/05 10:53:24;;;;;;;7.63;2.75;;;15.60;99.90;;;;;;5058234;28;20246;-39
2021/03/05 10:55:52;;;;;;;8.07;3.05;;;16.20;99.90;;;;;;5064789;28;20395;-41
2021/03/05 10:58:19;;;;;;;4.97;3.22;;;17.60;98.20;;;;;;5068202;28;20195;-42
2021/03/05 11:00:46;;;;;;;5.82;2.85;;;14.50;97.20;;;;;;5057932;28;20697;-41
2021/03/05 11:03:12;;;;;;;6.22;2.80;;;11.40;99.20;;;;;;5070516;28;20481;-41
2021/03/05 11:05:39;;;;;;;4.80;2.17;;;13.70;99.90;;;;;;5069938;28;20286;-43
2021/03/05 11:08:07;;;;;;;5.63;2.78;;;17.00;98.20;;;;;;5057645;28;20737;-41
2021/03/05 11:10:34;;;;;;;13.10;6.43;;;18.00;93.00;;;;;;5059108;28;20203;-42
2021/03/05 11:13:02;;;;;;;7.55;2.38;;;18.70;91.80;;;;;;5069709;28;20506;-41
2021/03/05 11:15:32;;;;;;;6.68;2.85;;;19.30;88.50;;;;;;5071908;28;20203;-42
2021/03/05 11:17:59;;;;;;;3.38;1.70;;;18.70;87.30;;;;;;5071688;28;20206;-41
2021/03/05 11:20:25;;;;;;;4.22;1.98;;;15.10;90.00;;;;;;5068929;28;20636;-42
2021/03/05 11:22:53;;;;;;;3.17;1.63;;;15.20;91.20;;;;;;5066737;28;20585;-42
2021/03/05 11:25:20;;;;;;;3.40;1.90;;;17.10;90.50;;;;;;5072407;28;20618;-41
2021/03/05 11:27:47;;;;;;;3.67;1.80;;;17.60;88.20;;;;;;5061589;28;20232;-43
2021/03/05 11:30:18;;;;;;;4.13;2.08;;;18.90;85.40;;;;;;5067944;28;20190;-40
2021/03/05 11:32:46;;;;;;;3.60;1.88;;;20.10;82.80;;;;;;5068733;28;20262;-41
2021/03/05 11:35:14;;;;;;;1.60;1.08;;;18.90;80.30;;;;;;5069999;28;20251;-43
2021/03/05 11:37:41;;;;;;;3.25;1.63;;;15.30;82.70;;;;;;5058950;28;20233;-41
2021/03/05 11:40:10;;;;;;;3.95;1.65;;;12.90;88.10;;;;;;5062477;28;20313;-43
2021/03/05 11:42:37;;;;;;;4.53;1.88;;;10.70;91.00;;;;;;5069637;28;20287;-40
2021/03/05 11:45:05;;;;;;;4.68;2.10;;;13.40;92.30;;;;;;5071699;28;20197;-45
2021/03/05 11:47:34;;;;;;;1.88;1.48;;;14.20;90.40;;;;;;5067230;28;20615;-40
2021/03/05 11:50:01;;;;;;;4.13;1.40;;;12.30;91.30;;;;;;5058501;28;20199;-42
2021/03/05 11:52:28;;;;;;;1.98;1.75;;;10.90;92.00;;;;;;5062793;28;20207;-41
2021/03/05 11:54:56;;;;;;;3.25;1.73;;;10.40;92.60;;;;;;5064987;28;20221;-43
2021/03/05 11:57:23;;;;;;;2.60;1.67;;;9.70;93.40;;;;;;5057732;28;20276;-41
2021/03/05 11:59:49;;;;;;;2.60;1.50;;;8.70;94.30;;;;;;5061884;28;20241;-40
2021/03/05 12:02:16;;;;;;;2.97;1.10;;;8.00;95.80;;;;;;5057532;28;20674;-44
2021/03/05 12:04:44;;;;;;;2.67;1.55;;;7.90;93.90;;;;;;5058122;28;20227;-42
2021/03/05 12:07:11;;;;;;;2.43;1.20;;;8.30;95.00;;;;;;5059374;28;20187;-42
2021/03/05 12:09:38;;;;;;;7.65;4.43;;;9.00;94.60;;;;;;5061521;28;20206;-41
2021/03/05 12:12:06;;;;;;;8.63;5.32;;;9.50;93.70;;;;;;5061945;28;20195;-40
2021/03/05 12:14:32;;;;;;;4.40;2.33;;;10.30;94.10;;;;;;5061765;28;20229;-42
2021/03/05 12:16:59;;;;;;;1.67;1.20;;;11.00;93.20;;;;;;5068396;28;20473;-40
2021/03/05 12:19:26;;;;;;;4.07;1.65;;;11.20;92.70;;;;;;5069377;28;20201;-41
2021/03/05 12:21:54;;;;;;;3.25;2.30;;;11.30;91.70;;;;;;5058438;28;20204;-42
2021/03/05 12:24:21;;;;;;;2.80;1.50;;;11.20;92.00;;;;;;5059613;28;20230;-43
2021/03/05 12:26:48;;;;;;;1.70;1.60;;;10.60;92.40;;;;;;5061751;28;20213;-41
2021/03/05 12:29:15;;;;;;;1.65;1.33;;;9.80;92.60;;;;;;5061155;28;20686;-42
2021/03/05 12:31:41;;;;;;;4.03;1.73;;;8.90;93.10;;;;;;5059623;28;20690;-40
2021/03/05 12:34:08;;;;;;;2.67;1.10;;;8.20;93.50;;;;;;5066904;28;20221;-41
2021/03/05 12:36:35;;;;;;;2.75;1.27;;;7.70;94.80;;;;;;5050239;28;20191;-40
2021/03/05 12:39:02;;;;;;;2.30;1.60;;;7.50;95.00;;;;;;5059916;28;20208;-42
2021/03/05 12:41:29;;;;;;;1.83;0.90;;;7.80;94.50;;;;;;5067072;28;20299;-45
2021/03/05 12:43:56;;;;;;;2.75;1.40;;;8.30;94.30;;;;;;5063236;28;20726;-41
2021/03/05 12:46:23;;;;;;;4.43;1.77;;;9.00;94.20;;;;;;5056091;28;20195;-40
2021/03/05 12:48:50;;;;;;;1.45;1.25;;;9.50;94.40;;;;;;5058953;28;20216;-43
2021/03/05 12:51:17;;;;;;;5.32;1.58;;;9.80;92.70;;;;;;5063518;28;20245;-41
2021/03/05 12:53:44;;;;;;;2.75;1.50;;;9.70;92.40;;;;;;5060028;28;20237;-44
2021/03/05 12:56:12;;;;;;;1.88;1.27;;;9.60;92.70;;;;;;5060628;28;20191;-41
2021/03/05 12:58:39;;;;;;;1.15;1.00;;;9.60;93.10;;;;;;5052619;28;20615;-42
2021/03/05 13:01:05;;;;;;;2.63;0.98;;;9.80;92.70;;;;;;5065146;28;20213;-41
2021/03/05 13:03:32;;;;;;;1.67;1.40;;;9.80;92.60;;;;;;5059151;28;20587;-42
2021/03/05 13:05:59;;;;;;;3.65;1.52;;;9.90;91.90;;;;;;5063096;28;20196;-43
2021/03/05 13:08:26;;;;;;;2.28;1.30;;;10.20;91.10;;;;;;5053974;28;20206;-41
2021/03/05 13:10:53;;;;;;;3.30;2.20;;;10.00;90.90;;;;;;5066668;28;20198;-42